Airfield :
LOGIN :

Register | Disclaimer

   EN    FR    IT 

 










Legend :    VFR   Marginal VFR   IFR   Intensive IFR   Very Intensive IFR
Visi :
Ceiling :
>= 8 km
>= 3000ft
5 to 8 km
1000 to 3000 ft
1500m to 5 km
500 to 1000 ft
800 to 1500m
200 to 500 ft
< 800m
< 200 ft
Symbols :   Thunderstorms  Fog  Heavy snow  Heavy precipitations  Wind > 20 kt
SIGMETs :     Misc.  Thunderstorms  Icing  Turbulence  Mountain Waves  Volcanic Ashes







- Airport Elevation : 70 ft
- IATA code : LEI


LEAM - Almeria

CURRENT METAR :
  • 301400Z 11014KT 070V150 CAVOK 23/04 Q1022

EXPIRED METARs :
  • 301330Z 10014KT CAVOK 23/04 Q1022
  • 301300Z 10014KT CAVOK 23/03 Q1023
  • 301230Z 09012KT 050V140 CAVOK 23/04 Q1023
  • 301200Z 10013KT 070V140 CAVOK 23/02 Q1023
  • 301130Z 10013KT 060V130 CAVOK 23/04 Q1023

TAF TAF LEAM
Valid from the 30 at 09:00 until the 31 at 09:00 UTC


300800Z 3009/3109 01006KT 9999 FEW015 TX24/3015Z TN12/3106Z
BECMG 3009/3011 09010KT
BECMG 3020/3022 34006KT
No reported NOTAMs for that airfield.



MET'MAP, your aeronautical weather chart ! - Copyright ORBIFLY December 2007 - Disclaimer

ORBIFLY MET'MAP TEAM :

Programming & Development : Alexandra Zaïnal
Concept & Development : Baudouin d'Aumeries
Co-Development & Prog : Marc-Olivier Méhu
Technical & hardware support : Manuel Goepfert

Contact : metmap@orbifly.com




SOURCES & CREDITS :

   NOAA